Time;durP1;ratioP1;P1;durP2;ratioP2;P2;SDS_P1;SDS_P2;PMS_P1;PMS_P2;Temp;Humidity;BMP_temperature;BMP_pressure;BME280_temperature;BME280_humidity;BME280_pressure;Samples;Min_cycle;Max_cycle;Signal;HPM_P1;HPM_P2
2022/09/23 00:01:15;;;;;;;5.78;4.05;;;;;;;18.17;47.36;93727.16;5037123;28;20460;-84
2022/09/23 00:03:41;;;;;;;5.30;3.88;;;;;;;18.21;47.82;93716.69;5080515;28;20047;-83
2022/09/23 00:06:12;;;;;;;4.35;3.63;;;;;;;18.16;48.08;93728.41;5053781;28;20372;-84
2022/09/23 00:08:37;;;;;;;;;;;;;;;18.23;47.53;93735.34;5052239;28;20123;-83
2022/09/23 00:11:12;;;;;;;6.38;3.97;;;;;;;18.15;47.39;93732.38;5080522;28;20428;-83
2022/09/23 00:13:37;;;;;;;5.50;4.10;;;;;;;18.14;47.57;93726.16;5055506;28;20425;-83
2022/09/23 00:16:04;;;;;;;5.85;4.13;;;;;;;18.15;47.62;93719.44;5083066;28;20111;-84
2022/09/23 00:18:29;;;;;;;5.30;4.00;;;;;;;18.15;47.16;93719.44;5054399;28;20040;-84
2022/09/23 00:20:55;;;;;;;4.22;3.45;;;;;;;18.16;47.18;93712.00;5056692;28;20043;-83
2022/09/23 00:23:20;;;;;;;6.55;4.50;;;;;;;18.15;47.22;93722.19;5066632;28;20108;-83
2022/09/23 00:25:54;;;;;;;5.32;4.05;;;;;;;18.14;47.66;93725.41;5097881;27;20071;-83
2022/09/23 00:28:20;;;;;;;5.75;4.15;;;;;;;18.17;47.40;93716.22;5065950;28;20045;-83
2022/09/23 00:30:45;;;;;;;3.92;3.38;;;;;;;18.17;47.24;93707.25;5080835;28;20043;-83
2022/09/23 00:33:11;;;;;;;5.07;3.83;;;;;;;18.17;47.29;93710.00;5070508;28;20032;-83
2022/09/23 00:35:37;;;;;;;4.53;3.47;;;;;;;18.15;47.17;93696.81;5087519;28;20063;-83
2022/09/23 00:38:02;;;;;;;4.93;3.63;;;;;;;18.13;47.59;93702.03;5086087;28;20032;-83
2022/09/23 00:40:28;;;;;;;5.10;3.50;;;;;;;18.14;47.17;93698.81;5042006;28;20044;-83
2022/09/23 00:42:53;;;;;;;5.28;3.92;;;;;;;18.14;47.79;93695.31;5077554;28;20044;-83
2022/09/23 00:45:19;;;;;;;5.07;4.05;;;;;;;18.13;47.92;93693.84;5084542;28;20063;-83
2022/09/23 00:47:52;;;;;;;4.00;3.33;;;;;;;18.12;47.92;93693.09;5050698;28;20679;-84
2022/09/23 00:50:20;;;;;;;4.28;3.47;;;;;;;18.12;47.71;93695.81;5067833;28;20072;-83
2022/09/23 00:52:46;;;;;;;5.50;3.75;;;;;;;18.11;47.39;93688.84;5087956;28;20032;-83
2022/09/23 00:55:14;;;;;;;4.30;3.58;;;;;;;18.10;47.57;93692.84;5042690;28;20037;-83
2022/09/23 00:57:40;;;;;;;4.10;3.17;;;;;;;18.11;47.90;93691.59;5045770;28;20037;-84
2022/09/23 01:00:06;;;;;;;4.38;3.20;;;;;;;18.11;47.41;93694.34;5052300;28;20028;-83
2022/09/23 01:02:31;;;;;;;3.58;3.05;;;;;;;18.13;47.12;93688.34;5049034;28;20028;-83
2022/09/23 01:04:57;;;;;;;5.07;3.40;;;;;;;18.11;47.98;93686.13;5034232;28;20063;-83
2022/09/23 01:07:22;;;;;;;3.83;3.42;;;;;;;18.13;47.31;93685.63;5049617;28;20037;-83
2022/09/23 01:09:47;;;;;;;4.05;3.05;;;;;;;18.13;47.27;93677.41;5049613;28;20102;-83
2022/09/23 01:12:22;;;;;;;4.13;3.40;;;;;;;18.12;47.60;93671.19;5048688;28;20047;-83
2022/09/23 01:14:53;;;;;;;5.95;3.65;;;;;;;18.12;48.02;93673.94;5033900;28;20147;-83
2022/09/23 01:17:53;;;;;;;4.03;3.22;;;;;;;18.12;47.52;93663.00;5066124;28;20067;-83
2022/09/23 01:20:45;;;;;;;4.40;2.53;;;;;;;18.12;47.86;93673.19;5052009;28;20503;-83
2022/09/23 01:23:42;;;;;;;4.20;3.13;;;;;;;18.13;47.56;93669.97;5066192;28;20277;-84
2022/09/23 01:26:07;;;;;;;3.70;2.80;;;;;;;18.13;47.37;93669.22;5065956;28;20032;-84
2022/09/23 01:28:41;;;;;;;4.32;3.10;;;;;;;18.13;47.58;93661.75;5065791;28;20033;-84
2022/09/23 01:31:32;;;;;;;4.07;3.03;;;;;;;18.12;47.35;93659.50;5048756;28;20044;-83
2022/09/23 01:34:15;;;;;;;3.85;2.67;;;;;;;18.10;47.75;93662.75;5051033;28;20032;-83
2022/09/23 01:36:54;;;;;;;3.88;2.97;;;;;;;18.11;47.71;93664.25;5049847;28;20487;-83
2022/09/23 01:39:33;;;;;;;3.10;2.45;;;;;;;18.10;47.52;93659.25;5032644;28;20048;-83
2022/09/23 01:42:04;;;;;;;4.75;3.03;;;;;;;18.10;47.86;93660.00;5062640;28;20036;-83
2022/09/23 01:44:33;;;;;;;3.63;2.63;;;;;;;18.10;47.80;93659.25;5049554;28;20044;-83
2022/09/23 01:47:07;;;;;;;3.03;2.72;;;;;;;18.09;47.79;93664.00;5066218;28;20519;-84
2022/09/23 01:49:46;;;;;;;3.35;2.60;;;;;;;18.11;47.34;93658.03;5065812;28;20147;-83
2022/09/23 01:52:17;;;;;;;3.33;2.70;;;;;;;18.09;47.49;93661.25;5045043;28;20033;-84
2022/09/23 01:54:49;;;;;;;;;;;;;;;18.13;47.50;93661.00;5069328;28;20035;-83
2022/09/23 01:57:22;;;;;;;3.13;2.80;;;;;;;18.10;46.83;93657.28;5054710;28;20386;-83
2022/09/23 01:59:51;;;;;;;4.15;2.63;;;;;;;18.07;47.30;93652.06;5046865;28;20128;-83
2022/09/23 02:02:19;;;;;;;3.88;2.70;;;;;;;18.08;47.53;93648.81;5049153;28;20066;-84
2022/09/23 02:04:47;;;;;;;3.05;2.40;;;;;;;18.06;47.27;93648.56;5066222;28;20036;-83
2022/09/23 02:07:23;;;;;;;3.15;2.72;;;;;;;18.09;47.28;93660.50;5067625;28;20412;-83
2022/09/23 02:09:56;;;;;;;3.35;2.60;;;;;;;18.07;47.29;93649.31;5069157;28;20059;-83
2022/09/23 02:12:23;;;;;;;3.17;2.20;;;;;;;18.08;47.52;93653.56;5068882;28;20088;-83
2022/09/23 02:15:04;;;;;;;3.00;2.17;;;;;;;18.08;47.47;93657.03;5059412;28;20036;-84
2022/09/23 02:17:35;;;;;;;3.35;2.60;;;;;;;18.07;47.27;93643.84;5064476;28;20059;-83
2022/09/23 02:20:02;;;;;;;2.78;2.20;;;;;;;18.08;47.28;93642.59;5065877;28;20048;-83
2022/09/23 02:22:47;;;;;;;3.88;2.47;;;;;;;18.07;47.71;93641.13;5056805;28;20033;-83
2022/09/23 02:25:16;;;;;;;3.47;2.30;;;;;;;18.06;47.36;93643.09;5048217;28;20052;-83
2022/09/23 02:27:50;;;;;;;3.47;2.65;;;;;;;18.06;47.53;93654.06;5049025;28;20135;-83
2022/09/23 02:30:26;;;;;;;3.40;2.45;;;;;;;18.07;47.07;93644.59;5048657;28;20048;-83
2022/09/23 02:32:59;;;;;;;2.67;2.20;;;;;;;18.06;46.95;93629.44;5049348;28;20040;-83
2022/09/23 02:35:31;;;;;;;3.35;2.47;;;;;;;18.08;47.04;93645.34;5048383;28;20037;-84
2022/09/23 02:38:24;;;;;;;2.95;2.25;;;;;;;18.08;47.39;93631.66;5048540;28;20537;-83
2022/09/23 02:40:55;;;;;;;2.60;2.22;;;;;;;18.06;47.47;93636.88;5073166;28;20426;-83
2022/09/23 02:43:32;;;;;;;2.22;1.92;;;;;;;18.08;47.43;93635.16;5078531;27;20067;-83
2022/09/23 02:45:58;;;;;;;2.38;2.10;;;;;;;18.07;46.94;93627.44;5065772;28;20033;-83
2022/09/23 02:48:30;;;;;;;2.95;2.22;;;;;;;18.09;47.09;93628.44;5066976;28;20032;-83
2022/09/23 02:50:56;;;;;;;2.97;2.35;;;;;;;18.08;46.91;93620.72;5067477;28;20064;-83
2022/09/23 02:53:22;;;;;;;3.17;2.30;;;;;;;18.06;46.82;93618.50;5065039;28;20032;-83
2022/09/23 02:55:48;;;;;;;2.92;2.25;;;;;;;18.06;47.42;93604.81;5082020;28;20043;-83
2022/09/23 02:58:13;;;;;;;3.78;2.05;;;;;;;18.06;46.78;93609.53;5048454;28;20029;-84
2022/09/23 03:01:05;;;;;;;2.10;1.90;;;;;;;18.06;47.24;93610.28;5068263;28;20036;-83
2022/09/23 03:03:53;;;;;;;2.53;2.28;;;;;;;18.05;46.85;93614.25;5058350;28;20032;-83
2022/09/23 03:06:31;;;;;;;2.72;1.80;;;;;;;18.06;47.48;93612.28;5064713;28;20036;-83
2022/09/23 03:09:11;;;;;;;2.10;1.80;;;;;;;18.05;47.36;93606.06;5048367;28;20033;-83
2022/09/23 03:11:37;;;;;;;3.00;2.40;;;;;;;18.05;47.22;93606.06;5032809;28;20062;-83
2022/09/23 03:14:07;;;;;;;2.42;1.98;;;;;;;18.04;46.67;93607.31;5027715;28;20710;-84
2022/09/23 03:16:42;;;;;;;4.43;1.77;;;;;;;18.05;47.00;93613.53;5056162;28;20115;-83
2022/09/23 03:19:17;;;;;;;2.28;1.95;;;;;;;18.04;47.52;93615.50;5045530;28;20040;-84
2022/09/23 03:21:59;;;;;;;3.10;2.03;;;;;;;18.05;46.93;93608.78;5065032;28;20052;-83
2022/09/23 03:24:25;;;;;;;2.67;1.85;;;;;;;18.03;47.27;93600.34;5032057;28;20056;-84
2022/09/23 03:26:50;;;;;;;3.30;1.92;;;;;;;18.03;47.16;93602.34;5070144;28;20040;-83
2022/09/23 03:29:16;;;;;;;2.78;1.95;;;;;;;18.04;47.16;93603.81;5047079;28;20044;-83
2022/09/23 03:31:42;;;;;;;3.08;2.03;;;;;;;18.03;47.27;93594.13;5064850;28;20036;-83
2022/09/23 03:34:22;;;;;;;3.15;2.30;;;;;;;18.03;47.39;93597.59;5047659;28;20033;-84
2022/09/23 03:36:58;;;;;;;2.53;2.10;;;;;;;18.03;46.98;93592.13;5048181;28;20031;-83
2022/09/23 03:39:32;;;;;;;2.47;1.90;;;;;;;18.02;47.27;93596.13;5049780;28;20076;-83
2022/09/23 03:42:00;;;;;;;3.05;2.38;;;;;;;18.00;47.33;93593.13;5078313;28;20103;-83
2022/09/23 03:44:27;;;;;;;3.28;1.98;;;;;;;18.01;47.12;93583.69;5064150;28;20119;-83
2022/09/23 03:46:54;;;;;;;2.83;2.33;;;;;;;18.03;47.26;93588.66;5065097;28;20032;-83
2022/09/23 03:49:27;;;;;;;2.42;1.83;;;;;;;18.01;47.13;93591.91;5047295;28;20068;-84
2022/09/23 03:51:55;;;;;;;3.05;2.28;;;;;;;18.01;47.05;93589.16;5064465;28;20048;-83
2022/09/23 03:54:21;;;;;;;3.08;1.90;;;;;;;18.02;47.31;93589.91;5046677;28;20059;-83
2022/09/23 03:56:46;;;;;;;2.50;1.80;;;;;;;18.01;47.34;93593.88;5065247;28;20032;-83
2022/09/23 03:59:13;;;;;;;2.22;2.00;;;;;;;18.04;46.85;93592.88;5061444;28;20033;-83
2022/09/23 04:01:40;;;;;;;2.13;1.85;;;;;;;18.01;47.64;93591.91;5064890;28;20091;-83
2022/09/23 04:04:06;;;;;;;2.35;1.88;;;;;;;18.01;46.80;93585.69;5071952;27;20074;-84
2022/09/23 04:06:32;;;;;;;1.98;1.60;;;;;;;18.01;46.87;93575.47;5031477;28;20572;-84
2022/09/23 04:08:57;;;;;;;2.55;1.98;;;;;;;18.02;47.16;93587.91;5049259;28;20036;-83
2022/09/23 04:11:22;;;;;;;2.10;1.73;;;;;;;18.01;46.41;93585.69;5068808;28;20048;-83
2022/09/23 04:13:48;;;;;;;2.28;1.90;;;;;;;18.02;47.05;93581.69;5071039;28;20032;-83
2022/09/23 04:16:14;;;;;;;2.50;1.63;;;;;;;18.01;47.13;93580.94;5061850;28;20060;-84
2022/09/23 04:18:39;;;;;;;1.88;1.67;;;;;;;17.98;46.98;93576.47;5079585;28;20486;-83
2022/09/23 04:21:05;;;;;;;2.28;1.80;;;;;;;18.02;47.04;93573.50;5088080;28;20040;-84
2022/09/23 04:23:30;;;;;;;2.33;1.60;;;;;;;18.00;47.19;93573.25;5054091;28;20406;-84
2022/09/23 04:25:56;;;;;;;1.85;1.50;;;;;;;18.01;47.41;93585.69;5052905;28;20051;-83
2022/09/23 04:28:21;;;;;;;2.28;1.75;;;;;;;18.02;47.26;93578.97;5045470;28;20028;-84
2022/09/23 04:30:47;;;;;;;1.80;1.60;;;;;;;18.06;47.57;93569.25;5071197;28;20090;-83
2022/09/23 04:33:13;;;;;;;3.15;1.65;;;;;;;18.09;46.96;93581.19;5046404;28;20032;-83
2022/09/23 04:35:39;;;;;;;1.88;1.63;;;;;;;18.06;47.55;93569.25;5070016;28;20047;-83
2022/09/23 04:38:05;;;;;;;4.03;1.50;;;;;;;18.06;47.82;93576.72;5070764;28;20044;-83
2022/09/23 04:40:30;;;;;;;1.90;1.60;;;;;;;18.02;47.24;93574.22;5053441;28;20070;-83
2022/09/23 04:42:56;;;;;;;1.70;1.50;;;;;;;18.04;46.79;93565.53;5071094;28;20024;-83
2022/09/23 04:45:21;;;;;;;2.13;1.50;;;;;;;18.05;46.75;93575.22;5053445;28;20070;-83
2022/09/23 04:47:46;;;;;;;3.58;1.42;;;;;;;18.07;47.16;93578.19;5070766;28;20040;-83
2022/09/23 04:50:12;;;;;;;1.23;1.02;;;;;;;18.03;47.33;93575.72;5077559;28;20074;-83
2022/09/23 04:52:37;;;;;;;1.80;1.50;;;;;;;18.09;47.36;93581.19;5063775;28;20458;-83
2022/09/23 04:55:03;;;;;;;3.10;1.50;;;;;;;18.05;47.08;93573.22;5087027;28;20482;-84
2022/09/23 04:57:28;;;;;;;1.38;1.17;;;;;;;18.04;47.03;93565.53;5070498;28;20042;-84
2022/09/23 04:59:55;;;;;;;2.53;1.35;;;;;;;18.05;46.82;93572.47;5070634;28;20036;-83
2022/09/23 05:02:21;;;;;;;1.95;1.50;;;;;;;18.04;47.08;93571.00;5069723;28;20036;-83
2022/09/23 05:04:46;;;;;;;1.38;1.25;;;;;;;18.04;46.75;93574.47;5070952;28;20029;-83
2022/09/23 05:07:11;;;;;;;1.35;1.20;;;;;;;18.06;46.95;93569.25;5035008;28;20388;-82
2022/09/23 05:09:37;;;;;;;3.38;0.88;;;;;;;18.04;46.95;93574.47;5034910;28;20032;-83
2022/09/23 05:12:03;;;;;;;1.73;1.30;;;;;;;18.05;47.22;93570.50;5048634;28;20082;-84
2022/09/23 05:14:28;;;;;;;1.55;1.20;;;;;;;18.06;46.92;93571.25;5066287;28;20041;-83
2022/09/23 05:16:54;;;;;;;5.63;1.30;;;;;;;18.05;47.05;93573.22;5066507;28;20040;-83
2022/09/23 05:19:19;;;;;;;2.88;1.00;;;;;;;18.06;47.09;93569.25;5049499;28;20049;-84
2022/09/23 05:21:45;;;;;;;1.88;1.20;;;;;;;18.08;46.94;93579.69;5065699;28;20485;-83
2022/09/23 05:24:10;;;;;;;1.17;0.95;;;;;;;18.11;47.37;93571.22;5049394;28;20494;-84
2022/09/23 05:26:36;;;;;;;1.40;1.00;;;;;;;18.11;46.68;93570.47;5075525;28;20497;-84
2022/09/23 05:29:01;;;;;;;1.23;1.10;;;;;;;18.11;47.01;93573.22;5040261;28;20064;-84
2022/09/23 05:31:28;;;;;;;1.80;1.00;;;;;;;18.14;47.43;93580.41;5065912;28;20048;-83
2022/09/23 05:34:00;;;;;;;6.47;1.02;;;;;;;18.15;47.21;93584.63;5059255;28;20492;-84
2022/09/23 05:36:27;;;;;;;1.88;1.20;;;;;;;18.17;47.31;93586.88;5067151;28;20075;-84
2022/09/23 05:38:55;;;;;;;8.38;1.58;;;;;;;18.15;46.49;93585.38;5042140;28;20553;-84
2022/09/23 05:41:24;;;;;;;3.97;1.35;;;;;;;18.18;47.44;93588.34;5060555;28;20041;-83
2022/09/23 05:43:52;;;;;;;4.78;1.58;;;;;;;18.17;46.40;93586.88;5051373;28;20513;-84
2022/09/23 05:46:22;;;;;;;3.72;1.30;;;;;;;18.21;47.45;93595.53;5048254;28;20442;-83
2022/09/23 05:48:48;;;;;;;6.72;1.20;;;;;;;18.22;47.29;93597.03;5049240;28;20041;-83
2022/09/23 05:51:19;;;;;;;7.20;1.35;;;;;;;18.18;47.17;93591.84;5052014;27;20108;-83
2022/09/23 05:53:45;;;;;;;2.58;0.88;;;;;;;18.23;47.30;93591.03;5046156;28;20055;-84
2022/09/23 05:56:11;;;;;;;6.13;0.93;;;;;;;18.26;47.81;93592.03;5023495;28;20578;-84
2022/09/23 05:58:37;;;;;;;7.38;1.83;;;;;;;18.26;47.12;93594.78;5033349;28;20050;-84
2022/09/23 06:01:09;;;;;;;2.53;1.00;;;;;;;18.26;47.52;93600.25;5031602;28;20032;-85
2022/09/23 06:03:35;;;;;;;4.47;1.25;;;;;;;18.26;46.86;93598.25;5032531;28;20033;-84
2022/09/23 06:06:00;;;;;;;7.50;1.60;;;;;;;18.30;46.83;93592.50;5041292;28;20048;-84
2022/09/23 06:08:26;;;;;;;3.25;1.08;;;;;;;18.28;47.20;93590.28;5052222;28;20650;-84
2022/09/23 06:10:52;;;;;;;2.72;1.10;;;;;;;18.28;46.22;93593.03;5069539;28;20051;-84
2022/09/23 06:13:17;;;;;;;4.10;1.20;;;;;;;18.29;46.98;93589.03;5067871;28;20089;-84
2022/09/23 06:15:43;;;;;;;1.73;1.10;;;;;;;18.31;46.86;93597.47;5065054;28;20483;-83
2022/09/23 06:18:08;;;;;;;1.45;0.95;;;;;;;18.33;46.91;93588.78;5068528;28;20398;-85
2022/09/23 06:20:34;;;;;;;3.53;1.13;;;;;;;18.28;46.01;93603.22;5052948;28;20043;-84
2022/09/23 06:23:05;;;;;;;3.42;1.58;;;;;;;18.29;46.19;93594.50;5086670;28;20450;-84
2022/09/23 06:25:32;;;;;;;2.22;1.48;;;;;;;18.33;45.84;93600.47;5064976;28;20036;-84
2022/09/23 06:27:58;;;;;;;5.32;2.63;;;;;;;18.35;46.38;93597.22;5048553;28;20121;-84
2022/09/23 06:30:24;;;;;;;6.03;3.72;;;;;;;18.36;46.28;93590.50;5039363;28;20087;-84
2022/09/23 06:32:54;;;;;;;15.10;5.72;;;;;;;18.35;46.20;93594.47;5049122;28;20033;-84
2022/09/23 06:35:21;;;;;;;23.10;7.85;;;;;;;18.35;46.69;93597.22;5048758;28;20566;-83
2022/09/23 06:37:46;;;;;;;29.15;8.48;;;;;;;18.38;46.76;93591.47;5065655;28;20143;-84
2022/09/23 06:40:13;;;;;;;23.02;8.80;;;;;;;18.39;46.56;93592.22;5067993;28;20123;-85
2022/09/23 06:42:39;;;;;;;22.50;8.82;;;;;;;18.39;46.63;93594.97;5089301;28;20092;-85
2022/09/23 06:45:04;;;;;;;27.40;8.00;;;;;;;18.40;46.41;93590.97;5078313;28;20458;-85
2022/09/23 06:47:30;;;;;;;27.63;8.80;;;;;;;18.43;46.55;93595.41;5037166;28;20067;-85
2022/09/23 06:49:55;;;;;;;16.88;6.57;;;;;;;18.43;46.56;93587.94;5043931;28;20039;-85
2022/09/23 06:52:20;;;;;;;19.42;6.35;;;;;;;18.46;46.49;93586.94;5065561;28;20025;-85
2022/09/23 06:54:49;;;;;;;17.13;6.28;;;;;;;18.48;47.05;93586.44;5039335;28;20420;-85
2022/09/23 06:57:14;;;;;;;23.67;6.65;;;;;;;18.49;46.40;93585.94;5035163;28;20475;-85
2022/09/23 06:59:40;;;;;;;15.57;6.53;;;;;;;18.48;46.38;93583.69;5036099;28;20097;-86
2022/09/23 07:02:06;;;;;;;22.52;6.75;;;;;;;18.50;46.20;93589.41;5052486;28;20047;-85
2022/09/23 07:04:31;;;;;;;20.17;6.13;;;;;;;18.48;46.78;93592.66;5085222;28;20487;-85
2022/09/23 07:06:57;;;;;;;22.98;7.93;;;;;;;18.50;46.89;93592.91;5086199;28;20028;-85
2022/09/23 07:09:22;;;;;;;30.80;7.18;;;;;;;18.51;46.82;93590.91;5102541;28;20043;-85
2022/09/23 07:11:47;;;;;;;21.02;7.28;;;;;;;18.52;46.45;93588.91;5065031;28;20036;-85
2022/09/23 07:14:13;;;;;;;23.25;6.70;;;;;;;18.49;46.66;93599.63;5068102;28;20032;-85
2022/09/23 07:16:38;;;;;;;26.15;6.45;;;;;;;18.54;46.42;93598.09;5091564;28;20040;-85
2022/09/23 07:19:04;;;;;;;26.45;7.43;;;;;;;18.53;46.74;93598.59;5067475;28;20044;-86
2022/09/23 07:21:29;;;;;;;15.27;5.70;;;;;;;18.50;46.60;93597.63;5051653;28;20079;-85
2022/09/23 07:23:56;;;;;;;14.20;5.93;;;;;;;18.54;46.47;93597.34;5032407;28;20057;-85
2022/09/23 07:26:22;;;;;;;15.95;5.18;;;;;;;18.54;46.86;93606.31;5047097;28;20487;-84
2022/09/23 07:28:53;;;;;;;19.33;6.10;;;;;;;18.55;46.47;93605.06;5030944;28;20086;-85
2022/09/23 07:31:18;;;;;;;;;;;;;;;18.53;46.65;93609.56;5079944;28;20086;-84
2022/09/23 07:33:44;;;;;;;15.65;6.53;;;;;;;18.54;46.70;93620.00;5078950;28;19917;-84
2022/09/23 07:36:13;;;;;;;16.13;6.78;;;;;;;18.57;46.71;93618.25;5044635;28;20033;-84
2022/09/23 07:38:40;;;;;;;15.10;7.17;;;;;;;18.54;46.61;93614.53;5058890;28;20039;-84
2022/09/23 07:41:07;;;;;;;26.75;8.15;;;;;;;18.56;46.96;93611.28;5066295;28;20041;-84
2022/09/23 07:43:33;;;;;;;26.63;9.65;;;;;;;18.55;46.86;93607.81;5066805;28;20040;-84
2022/09/23 07:46:04;;;;;;;34.85;9.23;;;;;;;18.58;46.63;93606.78;5072785;28;20066;-84
2022/09/23 07:48:30;;;;;;;26.08;8.48;;;;;;;18.56;46.84;93612.03;5057055;28;20036;-84
2022/09/23 07:50:56;;;;;;;26.00;8.13;;;;;;;18.57;46.84;93613.53;5080872;28;20048;-84
2022/09/23 07:53:22;;;;;;;26.83;8.07;;;;;;;18.56;46.92;93614.03;5057098;28;20067;-84
2022/09/23 07:55:52;;;;;;;17.92;7.18;;;;;;;18.57;46.55;93616.25;5054579;28;20573;-84
2022/09/23 07:58:18;;;;;;;17.65;6.45;;;;;;;18.58;46.72;93617.75;5088938;28;20048;-84
2022/09/23 08:00:43;;;;;;;16.27;6.53;;;;;;;18.59;46.84;93616.53;5065841;28;20056;-85
2022/09/23 08:03:09;;;;;;;22.75;8.07;;;;;;;18.58;47.01;93625.97;5082362;28;20105;-83
2022/09/23 08:05:35;;;;;;;17.80;8.40;;;;;;;18.59;47.10;93619.28;5065564;28;20465;-85
2022/09/23 08:08:01;;;;;;;21.58;9.27;;;;;;;18.62;46.90;93620.25;5052684;28;20818;-84
2022/09/23 08:10:26;;;;;;;26.98;10.32;;;;;;;18.60;46.75;93614.53;5045862;28;20044;-84
2022/09/23 08:12:52;;;;;;;22.55;11.05;;;;;;;18.62;46.77;93625.72;5055660;27;20035;-84
2022/09/23 08:15:17;;;;;;;27.00;12.52;;;;;;;18.61;46.95;93619.50;5070863;28;20044;-84
2022/09/23 08:17:43;;;;;;;17.23;9.63;;;;;;;18.65;47.02;93616.47;5083973;28;20390;-84
2022/09/23 08:20:42;;;;;;;25.00;11.27;;;;;;;18.64;47.01;93617.72;5057384;28;20077;-85
2022/09/23 08:22:54;;;;;;;26.15;12.40;;;;;;;18.64;46.83;93617.72;5088732;28;20391;-84
2022/09/23 08:25:19;;;;;;;39.40;17.42;;;;;;;18.61;46.81;93616.78;5088022;28;20098;-84
2022/09/23 08:27:45;;;;;;;46.42;18.65;;;;;;;18.65;47.03;93608.25;5042876;28;20054;-84
2022/09/23 08:30:11;;;;;;;54.03;22.60;;;;;;;18.64;47.04;93612.25;5055082;28;20041;-84
2022/09/23 08:32:36;;;;;;;46.38;22.23;;;;;;;18.66;47.01;93607.75;5038314;28;20171;-84
2022/09/23 08:35:01;;;;;;;44.08;21.05;;;;;;;18.63;47.08;93613.50;5032654;28;20045;-84
2022/09/23 08:37:27;;;;;;;50.35;21.88;;;;;;;18.66;46.94;93604.28;5083829;28;20064;-85
2022/09/23 08:39:52;;;;;;;42.05;18.77;;;;;;;18.66;46.67;93587.84;5074647;28;20045;-84
2022/09/23 08:42:23;;;;;;;46.05;17.40;;;;;;;18.64;47.23;93590.34;5066003;28;20150;-85
2022/09/23 08:44:50;;;;;;;37.17;16.27;;;;;;;18.68;46.45;93594.31;5053837;28;20044;-84
2022/09/23 08:47:27;;;;;;;40.83;17.63;;;;;;;18.66;46.92;93594.06;5058736;28;20064;-86
2022/09/23 08:49:54;;;;;;;60.42;22.90;;;;;;;18.68;46.90;93596.28;5047762;28;20036;-85
2022/09/23 08:52:32;;;;;;;64.65;24.33;;;;;;;18.67;46.50;93595.56;5067143;28;20047;-85
2022/09/23 08:54:57;;;;;;;46.15;19.95;;;;;;;18.68;46.15;93593.56;5058182;28;20147;-85
2022/09/23 08:57:33;;;;;;;41.10;19.45;;;;;;;18.66;46.04;93598.78;5020534;28;20029;-85
2022/09/23 08:59:59;;;;;;;41.53;19.25;;;;;;;18.66;46.43;93605.00;5036143;28;20036;-85
2022/09/23 09:02:24;;;;;;;37.70;20.65;;;;;;;18.66;46.60;93591.31;5085452;28;20043;-85
2022/09/23 09:04:52;;;;;;;47.78;23.85;;;;;;;18.67;46.71;93601.03;5070766;28;20040;-85
2022/09/23 09:07:20;;;;;;;48.90;21.85;;;;;;;18.67;46.71;93601.03;5070469;28;20087;-86
2022/09/23 09:09:49;;;;;;;48.85;20.95;;;;;;;18.66;46.18;93591.31;5069895;28;20044;-85
2022/09/23 09:12:16;;;;;;;33.85;18.55;;;;;;;18.66;46.76;93599.53;5087834;28;20043;-84
2022/09/23 09:14:57;;;;;;;34.97;17.70;;;;;;;18.66;46.61;93593.31;5087205;28;20064;-85
2022/09/23 09:17:37;;;;;;;35.85;18.48;;;;;;;18.67;46.16;93594.81;5085730;28;20174;-84
2022/09/23 09:20:11;;;;;;;30.00;16.48;;;;;;;18.68;46.27;93593.56;5066533;28;20060;-86
2022/09/23 09:22:59;;;;;;;33.72;18.90;;;;;;;18.67;46.30;93600.28;5060120;28;20040;-86
2022/09/23 09:25:36;;;;;;;31.48;17.58;;;;;;;18.67;46.65;93586.59;5065996;28;20499;-84
2022/09/23 09:28:20;;;;;;;46.30;21.13;;;;;;;18.68;46.33;93585.34;5086406;28;20135;-84
2022/09/23 09:30:49;;;;;;;41.92;19.58;;;;;;;18.67;46.82;93584.59;5061281;28;20040;-84
2022/09/23 09:33:16;;;;;;;38.92;17.63;;;;;;;18.69;46.10;93584.09;5039154;28;20036;-84
2022/09/23 09:35:59;;;;;;;44.72;20.98;;;;;;;18.66;46.23;93580.38;5056342;28;20040;-83
2022/09/23 09:38:26;;;;;;;52.28;20.55;;;;;;;18.71;46.09;93590.56;5066248;28;20055;-84
2022/09/23 09:40:51;;;;;;;42.80;19.80;;;;;;;18.68;46.03;93588.81;5066584;28;20041;-84
2022/09/23 09:43:23;;;;;;;49.92;19.52;;;;;;;18.67;46.68;93587.34;5061880;28;20028;-84
2022/09/23 09:46:31;;;;;;;43.65;19.45;;;;;;;18.68;46.73;93585.34;5065501;28;20036;-83
2022/09/23 09:48:59;;;;;;;46.15;19.85;;;;;;;18.70;46.44;93580.09;5087228;28;20039;-83
2022/09/23 09:51:26;;;;;;;38.97;17.58;;;;;;;18.68;46.09;93586.09;5065988;28;20148;-84
2022/09/23 09:53:52;;;;;;;41.17;17.13;;;;;;;18.71;46.12;93587.06;5056150;28;20491;-83
2022/09/23 09:56:19;;;;;;;32.00;16.05;;;;;;;18.69;46.05;93578.63;5048506;28;20040;-84
2022/09/23 09:58:46;;;;;;;31.40;15.40;;;;;;;18.68;45.69;93582.59;5037433;28;20029;-90
2022/09/23 10:01:31;;;;;;;33.78;15.25;;;;;;;18.67;46.22;93570.16;5084376;28;20040;-84
2022/09/23 10:03:58;;;;;;;27.83;14.85;;;;;;;18.68;46.14;93571.66;5071369;28;20422;-84
2022/09/23 10:06:28;;;;;;;35.33;15.00;;;;;;;18.68;45.88;93563.44;5056768;28;20495;-85
2022/09/23 10:09:07;;;;;;;39.10;15.17;;;;;;;18.67;45.83;93567.44;5033869;28;20101;-86
2022/09/23 10:11:32;;;;;;;33.60;13.20;;;;;;;18.67;45.80;93564.69;5046156;28;20044;-85
2022/09/23 10:14:16;;;;;;;25.23;13.13;;;;;;;18.66;46.03;93566.69;5046546;28;20407;-86
2022/09/23 10:16:42;;;;;;;27.80;13.25;;;;;;;18.68;45.87;93560.69;5055602;28;20475;-86
2022/09/23 10:19:28;;;;;;;28.65;14.25;;;;;;;18.67;46.00;93564.69;5053257;28;20124;-85
2022/09/23 10:21:58;;;;;;;26.85;12.50;;;;;;;18.71;46.20;93554.94;5060464;28;20037;-85
2022/09/23 10:24:26;;;;;;;18.88;11.40;;;;;;;18.67;46.02;93562.69;5033359;28;20040;-86
2022/09/23 10:26:57;;;;;;;19.02;10.73;;;;;;;18.70;45.66;93555.47;5057360;28;20032;-86
2022/09/23 10:29:28;;;;;;;21.80;11.75;;;;;;;18.67;46.10;93559.94;5064508;28;20127;-86
2022/09/23 10:32:13;;;;;;;26.92;11.75;;;;;;;18.69;46.33;93554.72;5068012;28;20144;-87
2022/09/23 10:34:41;;;;;;;20.25;10.10;;;;;;;18.68;45.83;93560.69;5048710;28;20040;-86
2022/09/23 10:37:17;;;;;;;17.73;10.20;;;;;;;18.67;45.98;93559.94;5057102;28;20155;-85
2022/09/23 10:48:26;;;;;;;22.20;9.00;;;;;;;18.67;45.76;93556.47;5084964;28;20047;-86
2022/09/23 10:50:51;;;;;;;12.73;8.00;;;;;;;18.67;45.61;93548.25;5070229;28;20036;-85
2022/09/23 10:53:40;;;;;;;18.40;9.70;;;;;;;18.67;45.93;93546.25;5068174;28;20059;-85
2022/09/23 10:56:29;;;;;;;15.23;8.73;;;;;;;18.65;46.20;93543.28;5070609;28;20046;-86
2022/09/23 10:59:08;;;;;;;19.60;8.82;;;;;;;18.65;45.70;93543.28;5078282;28;20100;-86
2022/09/23 11:01:58;;;;;;;14.55;7.90;;;;;;;18.63;45.91;93532.09;5036135;28;20032;-86
2022/09/23 11:04:32;;;;;;;17.67;8.27;;;;;;;18.66;45.76;93533.06;5064203;28;20048;-86
2022/09/23 11:06:57;;;;;;;16.08;7.85;;;;;;;18.68;46.14;93525.09;5066826;28;20076;-86
2022/09/23 11:09:39;;;;;;;12.45;7.72;;;;;;;18.66;46.49;93524.88;5044355;28;20432;-85
2022/09/23 11:12:13;;;;;;;13.48;7.55;;;;;;;18.69;46.10;93526.59;5066101;28;20040;-86
2022/09/23 11:15:01;;;;;;;14.43;7.38;;;;;;;18.66;45.33;93517.41;5083261;28;20040;-85
2022/09/23 11:18:02;;;;;;;10.25;6.82;;;;;;;18.65;46.14;93521.38;5028017;28;20056;-85
2022/09/23 11:20:58;;;;;;;14.80;7.72;;;;;;;18.67;46.00;93518.13;5054802;28;20044;-86
2022/09/23 11:23:46;;;;;;;12.95;6.22;;;;;;;18.66;46.54;93513.91;5070353;28;20071;-85
2022/09/23 11:26:15;;;;;;;9.45;5.95;;;;;;;18.66;45.84;93513.91;5053981;28;20305;-86
2022/09/23 11:28:44;;;;;;;10.05;6.75;;;;;;;18.66;45.96;93509.19;5080596;28;20119;-86
2022/09/23 11:31:15;;;;;;;9.90;6.35;;;;;;;18.68;46.35;93511.41;5076463;28;20055;-87
2022/09/23 11:34:11;;;;;;;10.70;6.05;;;;;;;18.65;46.80;93513.16;5070306;28;20093;-87
2022/09/23 11:36:46;;;;;;;10.82;6.75;;;;;;;18.66;46.22;93506.44;5069725;28;20048;-86
2022/09/23 11:39:15;;;;;;;9.63;6.40;;;;;;;18.68;45.92;93500.47;5068356;28;20067;-86
2022/09/23 11:41:41;;;;;;;8.02;5.43;;;;;;;18.65;46.70;93496.00;5068770;28;20514;-85
2022/09/23 11:44:30;;;;;;;11.00;5.15;;;;;;;18.66;46.58;93492.00;5035472;28;20089;-86
2022/09/23 11:47:06;;;;;;;8.55;5.22;;;;;;;18.67;46.89;93490.75;5059385;28;20595;-85
2022/09/23 11:49:54;;;;;;;15.98;5.65;;;;;;;18.67;46.04;93493.50;5068213;28;20036;-86
2022/09/23 11:52:23;;;;;;;11.25;5.97;;;;;;;18.70;46.19;93485.00;5103968;28;20040;-86